Time;durP1;ratioP1;P1;durP2;ratioP2;P2;SDS_P1;SDS_P2;PMS_P1;PMS_P2;Temp;Humidity;BMP_temperature;BMP_pressure;BME280_temperature;BME280_humidity;BME280_pressure;Samples;Min_cycle;Max_cycle;Signal;HPM_P1;HPM_P2
2022/08/29 00:01:45;;;;;;;10.82;5.70;;;;;;;23.99;81.64;100178.34;5104849;28;20054;-65
2022/08/29 00:04:10;;;;;;;6.85;5.72;;;;;;;23.89;81.80;100167.03;5105723;28;20039;-65
2022/08/29 00:06:36;;;;;;;7.22;5.60;;;;;;;23.90;82.26;100185.16;5105937;28;20035;-65
2022/08/29 00:09:01;;;;;;;7.63;5.45;;;;;;;23.87;82.69;100190.25;5105672;28;20031;-64
2022/08/29 00:11:27;;;;;;;8.32;6.13;;;;;;;23.81;83.35;100188.41;5087185;28;20043;-65
2022/08/29 00:13:52;;;;;;;6.22;5.63;;;;;;;23.74;83.73;100184.88;5105155;28;20031;-65
2022/08/29 00:16:18;;;;;;;6.90;6.20;;;;;;;23.62;84.54;100178.44;5107394;27;20076;-66
2022/08/29 00:18:44;;;;;;;7.45;5.85;;;;;;;23.64;85.02;100179.06;5105090;28;20111;-65
2022/08/29 00:21:10;;;;;;;7.15;6.47;;;;;;;23.58;85.59;100171.72;5105526;28;20052;-65
2022/08/29 00:23:36;;;;;;;8.18;6.38;;;;;;;23.50;86.06;100169.25;5105217;28;20027;-65
2022/08/29 00:26:01;;;;;;;8.93;7.38;;;;;;;23.57;86.29;100181.00;5087012;28;20023;-65
2022/08/29 00:28:27;;;;;;;8.75;7.00;;;;;;;23.51;86.88;100173.69;5104674;28;20060;-66
2022/08/29 00:30:52;;;;;;;8.52;7.07;;;;;;;23.45;87.20;100178.16;5107484;27;20050;-66
2022/08/29 00:33:18;;;;;;;8.43;7.60;;;;;;;23.47;87.82;100191.63;5105253;27;20031;-65
2022/08/29 00:35:45;;;;;;;8.48;7.13;;;;;;;23.45;87.88;100193.72;5105298;28;20043;-66
2022/08/29 00:38:13;;;;;;;8.38;6.63;;;;;;;23.45;88.21;100196.47;5102551;28;20043;-65
2022/08/29 00:40:43;;;;;;;10.10;7.40;;;;;;;23.40;88.48;100194.38;5104786;28;20451;-65
2022/08/29 00:43:09;;;;;;;9.43;7.30;;;;;;;23.30;88.84;100183.09;5086483;28;20030;-65
2022/08/29 00:45:37;;;;;;;10.15;7.88;;;;;;;23.30;89.06;100185.81;5104354;28;20035;-66
2022/08/29 00:48:10;;;;;;;9.38;7.80;;;;;;;23.34;89.39;100189.78;5086253;28;20031;-65
2022/08/29 00:50:43;;;;;;;8.52;7.53;;;;;;;23.34;89.54;100189.78;5086151;28;20100;-66
2022/08/29 00:53:13;;;;;;;8.30;7.15;;;;;;;23.30;89.85;100185.81;5105282;28;20031;-66
2022/08/29 00:55:39;;;;;;;9.90;7.68;;;;;;;23.30;90.22;100196.75;5102730;28;20458;-65
2022/08/29 00:58:11;;;;;;;11.38;7.38;;;;;;;23.24;90.16;100188.56;5104866;28;20027;-65
2022/08/29 01:00:38;;;;;;;9.50;7.82;;;;;;;23.22;90.36;100199.75;5105620;27;20042;-65
2022/08/29 01:03:06;;;;;;;8.15;7.35;;;;;;;23.18;90.85;100209.41;5107202;27;20038;-66
2022/08/29 01:05:36;;;;;;;8.32;7.53;;;;;;;23.17;90.99;100202.28;5103604;28;20771;-66
2022/08/29 01:08:03;;;;;;;10.50;7.95;;;;;;;23.12;91.42;100202.09;5104832;28;20034;-66
2022/08/29 01:13:13;;;;;;;11.45;8.35;;;;;;;23.07;91.93;100196.44;5103481;28;20034;-65
2022/08/29 01:15:41;;;;;;;7.90;7.10;;;;;;;23.10;91.63;100198.75;5105574;27;20027;-65
2022/08/29 01:18:08;;;;;;;8.45;7.65;;;;;;;23.02;92.45;100200.91;5105654;27;20024;-65
2022/08/29 01:20:49;;;;;;;8.88;7.95;;;;;;;22.97;93.07;100203.44;5094826;27;20047;-65
2022/08/29 01:23:25;;;;;;;9.90;8.30;;;;;;;22.98;92.95;100196.88;5090063;28;20132;-65
2022/08/29 01:25:51;;;;;;;9.95;8.20;;;;;;;22.86;93.57;100187.72;5104307;27;20155;-65
2022/08/29 01:28:27;;;;;;;10.02;8.07;;;;;;;22.78;93.80;100177.84;5108114;27;20034;-65
2022/08/29 01:31:08;;;;;;;11.00;8.52;;;;;;;22.89;93.84;100185.34;5108826;27;20110;-65
2022/08/29 01:33:42;;;;;;;10.68;7.85;;;;;;;22.91;93.97;100191.47;5107220;27;20049;-65
2022/08/29 01:36:10;;;;;;;11.48;8.85;;;;;;;22.83;94.12;100174.47;5104513;27;20595;-65
2022/08/29 01:38:37;;;;;;;11.25;8.20;;;;;;;22.81;94.70;100182.03;5110131;27;20070;-66
2022/08/29 01:41:04;;;;;;;10.30;8.57;;;;;;;22.74;94.55;100173.88;5108668;28;20023;-65
2022/08/29 01:43:36;;;;;;;9.48;8.10;;;;;;;22.73;94.99;100191.31;5105792;27;20070;-65
2022/08/29 01:46:01;;;;;;;11.30;8.50;;;;;;;22.64;95.25;100176.22;5108391;27;20080;-66
2022/08/29 01:48:27;;;;;;;10.73;8.50;;;;;;;22.71;95.28;100190.72;5092735;27;20031;-64
2022/08/29 01:50:52;;;;;;;11.45;8.10;;;;;;;22.64;95.42;100194.50;5107588;27;20436;-65
2022/08/29 01:53:18;;;;;;;9.90;8.55;;;;;;;22.70;95.52;100201.88;5104808;28;20020;-65
2022/08/29 01:55:43;;;;;;;11.60;8.88;;;;;;;22.64;95.75;100194.50;5113831;28;20023;-65
2022/08/29 01:58:09;;;;;;;8.85;7.95;;;;;;;22.55;95.75;100201.28;5108992;28;20028;-65
2022/08/29 02:00:35;;;;;;;11.13;8.45;;;;;;;22.63;95.79;100207.34;5086627;28;20099;-64
2022/08/29 02:03:02;;;;;;;11.73;9.15;;;;;;;22.60;95.97;100212.41;5107837;28;20042;-65
2022/08/29 02:05:28;;;;;;;11.55;8.90;;;;;;;22.58;95.97;100215.38;5106277;28;20427;-65
2022/08/29 02:07:55;;;;;;;9.65;8.68;;;;;;;22.53;95.84;100204.22;5087206;28;20060;-65
2022/08/29 02:10:20;;;;;;;9.93;8.88;;;;;;;22.55;96.23;100217.66;5104032;28;20024;-65
2022/08/29 02:12:46;;;;;;;9.95;8.88;;;;;;;22.49;96.52;100213.03;5113409;28;20035;-65
2022/08/29 02:15:12;;;;;;;11.63;9.45;;;;;;;22.41;96.46;100205.91;5107101;28;20080;-65
2022/08/29 02:17:37;;;;;;;9.98;8.95;;;;;;;22.40;96.77;100204.22;5084813;28;20027;-65
2022/08/29 02:20:07;;;;;;;9.73;8.77;;;;;;;22.35;97.11;100204.03;5107403;28;20378;-65
2022/08/29 02:22:34;;;;;;;9.40;8.50;;;;;;;22.35;97.07;100210.31;5106640;28;20635;-65
2022/08/29 02:25:00;;;;;;;9.77;8.77;;;;;;;22.30;97.25;100201.94;5106631;27;20051;-65
2022/08/29 02:27:26;;;;;;;12.15;9.05;;;;;;;22.29;97.58;100196.69;5107842;27;20058;-65
2022/08/29 02:29:51;;;;;;;10.98;9.65;;;;;;;22.22;97.81;100190.38;5115543;27;20490;-65
2022/08/29 02:32:17;;;;;;;11.07;9.20;;;;;;;22.27;97.66;100196.03;5090772;28;20080;-65
2022/08/29 02:34:44;;;;;;;10.40;9.30;;;;;;;22.16;97.24;100177.56;5110107;27;20027;-65
2022/08/29 02:37:10;;;;;;;12.35;9.25;;;;;;;22.25;97.63;100203.63;5107532;27;20705;-65
2022/08/29 02:39:36;;;;;;;9.80;8.57;;;;;;;22.24;97.46;100202.78;5116532;27;20035;-65
2022/08/29 02:42:02;;;;;;;10.75;9.43;;;;;;;22.23;97.07;100192.91;5109559;27;20054;-65
2022/08/29 02:44:27;;;;;;;11.45;9.23;;;;;;;22.23;97.48;100205.72;5089936;27;20055;-65
2022/08/29 02:46:53;;;;;;;10.07;8.82;;;;;;;22.13;97.52;100191.66;5112372;27;20428;-65
2022/08/29 02:49:18;;;;;;;11.65;9.20;;;;;;;22.09;97.74;100206.81;5115713;27;20153;-66
2022/08/29 02:51:44;;;;;;;10.07;8.93;;;;;;;22.05;97.83;100202.78;5105772;27;20035;-65
2022/08/29 02:54:11;;;;;;;10.05;9.05;;;;;;;22.06;98.22;100215.41;5087876;27;20149;-65
2022/08/29 02:56:37;;;;;;;11.70;9.57;;;;;;;22.01;98.64;100212.47;5095571;28;20536;-66
2022/08/29 02:59:03;;;;;;;16.00;10.07;;;;;;;21.97;98.79;100214.78;5112032;27;20031;-65
2022/08/29 03:01:30;;;;;;;10.27;9.15;;;;;;;21.82;99.21;100202.38;5108438;27;20131;-65
2022/08/29 03:03:55;;;;;;;10.57;8.57;;;;;;;21.85;99.59;100213.72;5093402;27;20039;-67
2022/08/29 03:06:21;;;;;;;11.00;9.70;;;;;;;21.85;99.97;100212.88;5113357;27;20041;-65
2022/08/29 03:08:47;;;;;;;10.48;9.30;;;;;;;21.85;100.00;100221.06;5092091;27;20035;-65
2022/08/29 03:11:13;;;;;;;10.60;9.30;;;;;;;21.82;99.98;100213.28;5110902;27;20039;-65
2022/08/29 03:13:38;;;;;;;12.13;9.82;;;;;;;21.87;99.93;100224.44;5109069;27;20028;-65
2022/08/29 03:16:04;;;;;;;11.20;9.90;;;;;;;21.85;100.00;100223.81;5109805;27;20019;-65
2022/08/29 03:18:29;;;;;;;10.57;9.45;;;;;;;21.83;100.00;100231.38;5108661;27;20059;-66
2022/08/29 03:20:56;;;;;;;12.18;10.13;;;;;;;21.81;100.00;100230.75;5114583;27;20060;-65
2022/08/29 03:23:21;;;;;;;10.52;9.52;;;;;;;21.75;100.00;100226.09;5111020;27;20032;-65
2022/08/29 03:25:47;;;;;;;12.77;10.25;;;;;;;21.67;100.00;100237.22;5107028;27;20108;-65
2022/08/29 03:28:12;;;;;;;10.43;9.15;;;;;;;21.65;100.00;100242.88;5106363;27;20843;-65
2022/08/29 03:30:38;;;;;;;12.07;9.73;;;;;;;21.62;100.00;100242.44;5113218;27;20043;-65
2022/08/29 03:33:04;;;;;;;12.40;11.02;;;;;;;21.67;100.00;100234.47;5110943;27;20730;-65
2022/08/29 03:35:30;;;;;;;10.70;9.65;;;;;;;21.64;100.00;100245.81;5107707;27;20148;-65
2022/08/29 03:37:57;;;;;;;15.18;10.60;;;;;;;21.65;100.00;100245.59;5111585;27;20391;-65
2022/08/29 03:40:23;;;;;;;11.82;9.73;;;;;;;21.66;100.00;100247.28;5110117;27;20027;-65
2022/08/29 03:42:50;;;;;;;15.00;11.25;;;;;;;21.62;100.00;100254.22;5090324;28;20023;-65
2022/08/29 03:45:17;;;;;;;11.60;10.40;;;;;;;21.62;100.00;100256.09;5110821;27;20035;-65
2022/08/29 03:47:43;;;;;;;15.80;10.68;;;;;;;21.58;100.00;100250.22;5114915;27;20435;-65
2022/08/29 03:50:10;;;;;;;12.82;10.55;;;;;;;21.56;100.00;100256.91;5112588;27;20028;-65
2022/08/29 03:52:36;;;;;;;13.15;11.65;;;;;;;21.55;100.00;100258.81;5106328;27;20486;-66
2022/08/29 03:55:03;;;;;;;14.55;11.40;;;;;;;21.46;100.00;100267.38;5110902;27;20076;-65
2022/08/29 03:57:31;;;;;;;14.30;12.07;;;;;;;21.45;100.00;100260.25;5112227;27;20110;-65
2022/08/29 03:59:58;;;;;;;16.05;11.70;;;;;;;21.49;100.00;100269.72;5108087;27;20035;-66
2022/08/29 04:02:23;;;;;;;13.48;11.73;;;;;;;21.54;100.00;100278.94;5090368;27;20027;-66
2022/08/29 04:05:07;;;;;;;14.48;11.82;;;;;;;21.53;100.00;100270.97;5108240;27;20035;-66
2022/08/29 04:07:38;;;;;;;13.88;11.80;;;;;;;21.46;100.00;100267.38;5090961;27;20042;-66
2022/08/29 04:10:05;;;;;;;13.52;11.77;;;;;;;21.29;100.00;100255.16;5109575;27;20031;-65
2022/08/29 04:12:31;;;;;;;15.23;12.80;;;;;;;21.33;100.00;100270.94;5107027;27;20031;-65
2022/08/29 04:14:57;;;;;;;14.82;12.27;;;;;;;21.31;100.00;100274.91;5111132;27;20413;-66
2022/08/29 04:17:22;;;;;;;13.90;11.70;;;;;;;21.29;100.00;100283.31;5111721;27;20092;-66
2022/08/29 04:19:48;;;;;;;14.23;12.10;;;;;;;21.25;100.00;100286.63;5107619;27;20467;-68
2022/08/29 04:22:14;;;;;;;14.15;11.45;;;;;;;21.28;100.00;100289.78;5105766;27;20764;-64
2022/08/29 04:24:39;;;;;;;17.55;12.32;;;;;;;21.21;100.00;100288.91;5088183;28;20060;-64
2022/08/29 04:27:05;;;;;;;12.77;11.38;;;;;;;21.17;100.00;100287.66;5112076;27;20109;-65
2022/08/29 04:29:33;;;;;;;13.60;11.40;;;;;;;21.11;100.00;100285.72;5090971;28;20036;-65
2022/08/29 04:31:58;;;;;;;13.00;10.60;;;;;;;21.17;100.00;100297.72;5106842;27;20467;-65
2022/08/29 04:34:24;;;;;;;12.57;10.90;;;;;;;21.15;100.00;100295.19;5108979;27;20046;-65
2022/08/29 04:36:49;;;;;;;13.40;10.82;;;;;;;21.10;100.00;100291.38;5113605;27;20847;-65
2022/08/29 04:39:15;;;;;;;12.75;11.43;;;;;;;21.17;100.00;100292.25;5105485;27;20110;-65
2022/08/29 04:41:41;;;;;;;13.90;10.85;;;;;;;21.21;100.00;100304.44;5085650;28;20023;-65
2022/08/29 04:44:09;;;;;;;13.38;9.65;;;;;;;21.27;100.00;100300.91;5115584;27;20038;-64
2022/08/29 04:46:35;;;;;;;13.45;10.07;;;;;;;21.22;100.00;100301.50;5107126;27;20039;-65
2022/08/29 04:49:00;;;;;;;13.02;11.10;;;;;;;21.22;100.00;100298.78;5106425;27;20038;-65
2022/08/29 04:51:27;;;;;;;14.02;10.13;;;;;;;21.28;100.00;100306.16;5104119;27;20051;-66
2022/08/29 04:53:52;;;;;;;13.38;10.38;;;;;;;21.28;100.00;100297.97;5112506;27;20030;-65
2022/08/29 04:56:19;;;;;;;11.73;9.93;;;;;;;21.57;100.00;100308.56;5109580;27;20019;-66
2022/08/29 04:58:46;;;;;;;14.73;10.90;;;;;;;21.57;100.00;100296.81;5106750;27;20358;-65
2022/08/29 05:01:13;;;;;;;11.80;9.45;;;;;;;21.54;100.00;100298.06;5107435;27;20038;-64
2022/08/29 05:03:39;;;;;;;10.00;8.85;;;;;;;21.66;100.00;100311.94;5103647;28;20110;-66
2022/08/29 05:06:07;;;;;;;15.95;9.65;;;;;;;21.64;100.00;100303.97;5109058;27;20110;-66
2022/08/29 05:08:35;;;;;;;10.50;8.55;;;;;;;21.70;100.00;100305.06;5108587;27;20046;-65
2022/08/29 05:11:02;;;;;;;12.85;9.20;;;;;;;21.67;100.00;100311.75;5104960;27;20031;-65
2022/08/29 05:13:27;;;;;;;13.43;10.88;;;;;;;21.69;100.00;100304.19;5113265;27;20030;-65
2022/08/29 05:15:53;;;;;;;13.82;10.07;;;;;;;21.83;100.00;100316.03;5109900;27;20019;-64
2022/08/29 05:18:18;;;;;;;11.48;8.85;;;;;;;21.81;100.00;100318.13;5107275;27;20023;-66
2022/08/29 05:20:46;;;;;;;11.02;8.85;;;;;;;21.84;100.00;100314.97;5103735;27;20039;-64
2022/08/29 05:23:13;;;;;;;11.35;8.25;;;;;;;21.88;100.00;100319.81;5118266;27;20035;-64
2022/08/29 05:25:39;;;;;;;10.20;8.30;;;;;;;21.88;100.00;100311.63;5109281;27;20031;-65
2022/08/29 05:28:05;;;;;;;10.82;9.20;;;;;;;22.07;99.89;100315.44;5108941;27;20150;-65
2022/08/29 05:30:30;;;;;;;12.07;9.23;;;;;;;22.06;100.00;100319.22;5104628;27;20146;-64
2022/08/29 05:32:57;;;;;;;11.38;9.30;;;;;;;22.21;99.10;100322.56;5108652;27;20872;-64
2022/08/29 05:35:22;;;;;;;9.65;8.73;;;;;;;22.21;98.94;100325.31;5104439;28;20046;-64
2022/08/29 05:37:48;;;;;;;11.23;9.13;;;;;;;22.26;98.53;100320.06;5104933;28;20028;-64
2022/08/29 05:40:16;;;;;;;16.05;9.25;;;;;;;22.36;97.77;100320.50;5086349;28;20042;-66
2022/08/29 05:42:42;;;;;;;10.27;8.55;;;;;;;22.32;97.51;100308.31;5104370;28;20035;-64
2022/08/29 05:45:08;;;;;;;11.02;8.95;;;;;;;22.48;96.38;100334.38;5105598;28;20076;-65
2022/08/29 05:47:33;;;;;;;9.88;8.20;;;;;;;22.48;95.41;100327.00;5104931;28;20027;-65
2022/08/29 05:49:59;;;;;;;11.43;7.05;;;;;;;22.55;95.50;100327.03;5104312;28;20051;-65
2022/08/29 05:52:25;;;;;;;8.30;7.35;;;;;;;22.59;95.57;100320.94;5104230;28;20031;-64
2022/08/29 05:54:51;;;;;;;8.20;7.07;;;;;;;22.76;93.81;100319.41;5086004;28;20032;-65
2022/08/29 05:57:20;;;;;;;10.05;7.22;;;;;;;22.81;94.57;100329.72;5103952;28;20106;-65
2022/08/29 05:59:50;;;;;;;8.18;7.38;;;;;;;23.02;91.83;100324.84;5102959;28;20042;-65
2022/08/29 06:02:17;;;;;;;11.27;7.43;;;;;;;23.15;90.81;100330.25;5104173;28;20452;-65
2022/08/29 06:04:44;;;;;;;8.80;6.88;;;;;;;23.16;90.39;100323.75;5103686;28;20067;-66
2022/08/29 06:07:10;;;;;;;12.30;7.53;;;;;;;23.29;89.57;100326.47;5104246;28;20024;-66
2022/08/29 06:09:38;;;;;;;8.65;6.72;;;;;;;23.35;88.43;100316.56;5104293;28;20054;-64
2022/08/29 06:12:04;;;;;;;9.00;6.07;;;;;;;23.44;89.25;100337.97;5104003;28;20502;-65
2022/08/29 06:14:30;;;;;;;9.32;6.85;;;;;;;23.55;88.22;100333.72;5104787;28;20053;-65
2022/08/29 06:16:55;;;;;;;9.20;6.75;;;;;;;23.77;86.17;100335.91;5103990;28;20019;-65
2022/08/29 06:19:21;;;;;;;8.65;6.35;;;;;;;23.79;86.58;100339.28;5104706;28;20110;-65
2022/08/29 06:21:47;;;;;;;8.45;6.60;;;;;;;23.91;84.92;100340.28;5085162;28;20109;-65
2022/08/29 06:24:13;;;;;;;8.65;6.50;;;;;;;24.00;84.54;100339.00;5103864;28;20038;-64
2022/08/29 06:26:39;;;;;;;8.65;6.78;;;;;;;24.17;82.97;100344.75;5104150;28;20031;-65
2022/08/29 06:29:06;;;;;;;8.15;6.60;;;;;;;24.31;82.50;100355.41;5103735;28;20024;-65
2022/08/29 06:31:32;;;;;;;8.20;7.18;;;;;;;24.49;80.39;100351.91;5085853;28;20469;-65
2022/08/29 06:34:01;;;;;;;8.30;6.55;;;;;;;24.62;80.04;100354.53;5103525;28;20034;-65
2022/08/29 06:36:28;;;;;;;7.20;6.50;;;;;;;24.67;79.99;100362.97;5104295;28;20020;-65
2022/08/29 06:38:58;;;;;;;8.95;6.00;;;;;;;24.82;77.96;100365.38;5101521;28;20119;-64
2022/08/29 06:41:25;;;;;;;8.15;6.03;;;;;;;24.84;78.06;100363.22;5085413;28;20548;-65
2022/08/29 06:43:51;;;;;;;7.03;6.28;;;;;;;24.91;77.32;100362.09;5103836;28;20023;-65
2022/08/29 06:46:28;;;;;;;8.02;6.47;;;;;;;24.94;78.00;100372.63;5101481;28;20023;-65
2022/08/29 06:48:55;;;;;;;7.95;6.43;;;;;;;25.05;75.68;100371.06;5103901;28;20425;-65
2022/08/29 06:51:21;;;;;;;6.55;5.90;;;;;;;25.05;75.18;100349.09;5103485;28;20088;-65
2022/08/29 06:53:47;;;;;;;9.57;6.32;;;;;;;25.05;75.79;100358.16;5103070;28;20743;-66
2022/08/29 06:56:13;;;;;;;7.65;6.45;;;;;;;24.98;76.02;100370.28;5084652;28;20047;-66
2022/08/29 06:58:39;;;;;;;6.75;6.00;;;;;;;24.86;76.44;100361.94;5103676;28;20027;-65
2022/08/29 07:01:06;;;;;;;6.78;5.95;;;;;;;24.93;76.16;100367.38;5103473;28;20446;-65
2022/08/29 07:03:32;;;;;;;8.02;5.50;;;;;;;24.93;75.79;100375.59;5103673;28;20102;-66
2022/08/29 07:05:58;;;;;;;8.13;6.07;;;;;;;24.76;77.16;100371.75;5084966;28;20138;-66
2022/08/29 07:08:23;;;;;;;7.18;5.93;;;;;;;24.73;77.85;100366.72;5103580;28;20043;-66
2022/08/29 07:10:49;;;;;;;9.38;5.72;;;;;;;24.78;77.76;100362.22;5085826;28;20052;-65
2022/08/29 07:13:14;;;;;;;6.22;5.50;;;;;;;24.74;78.13;100363.75;5088471;28;20027;-66
2022/08/29 07:15:40;;;;;;;6.30;5.70;;;;;;;24.78;77.53;100373.19;5107347;28;20023;-66
2022/08/29 07:18:06;;;;;;;6.20;5.63;;;;;;;24.70;78.36;100372.66;5100064;27;20027;-66
2022/08/29 07:20:32;;;;;;;6.90;5.85;;;;;;;24.71;78.43;100368.84;5107624;27;20036;-65
2022/08/29 07:22:57;;;;;;;6.53;5.88;;;;;;;24.76;77.95;100374.50;5106404;28;20100;-65
2022/08/29 07:25:23;;;;;;;9.68;5.68;;;;;;;24.79;78.01;100377.63;5106936;28;20027;-65
2022/08/29 07:27:50;;;;;;;6.65;5.38;;;;;;;24.81;77.73;100388.38;5106396;28;20035;-65
2022/08/29 07:30:16;;;;;;;9.35;6.13;;;;;;;24.84;77.59;100390.66;5106868;27;20032;-66
2022/08/29 07:32:44;;;;;;;6.00;5.30;;;;;;;24.82;77.90;100387.31;5088837;28;20522;-66
2022/08/29 07:35:14;;;;;;;9.40;6.20;;;;;;;24.92;76.80;100387.66;5107020;28;20030;-66
2022/08/29 07:37:41;;;;;;;8.13;6.03;;;;;;;24.86;77.24;100385.81;5106473;28;20625;-65
2022/08/29 07:40:11;;;;;;;6.25;5.60;;;;;;;24.89;77.41;100388.09;5088144;28;20160;-65
2022/08/29 07:42:37;;;;;;;6.05;5.40;;;;;;;24.95;77.06;100387.19;5106220;28;20131;-66
2022/08/29 07:45:05;;;;;;;6.60;5.90;;;;;;;24.96;77.04;100380.63;5106077;28;20030;-66
2022/08/29 07:47:31;;;;;;;7.68;5.78;;;;;;;24.85;77.68;100373.16;5106539;28;20055;-66
2022/08/29 07:49:58;;;;;;;7.47;5.63;;;;;;;25.07;76.69;100388.13;5106321;27;20035;-66
2022/08/29 07:52:26;;;;;;;8.63;6.43;;;;;;;25.05;77.11;100376.53;5106421;28;20028;-66
2022/08/29 07:54:51;;;;;;;7.13;5.68;;;;;;;25.16;76.59;100390.34;5106559;28;20028;-67
2022/08/29 07:57:17;;;;;;;6.22;5.63;;;;;;;25.28;75.77;100376.72;5106277;27;20030;-66
2022/08/29 07:59:43;;;;;;;6.68;5.97;;;;;;;25.43;74.60;100386.28;5103764;28;20035;-66
2022/08/29 08:02:08;;;;;;;8.23;5.95;;;;;;;25.48;74.31;100377.34;5105746;28;20108;-64
2022/08/29 08:04:34;;;;;;;7.35;5.30;;;;;;;25.48;75.07;100382.84;5098911;28;20028;-66
2022/08/29 08:06:59;;;;;;;7.68;5.18;;;;;;;25.74;73.34;100382.50;5087555;27;20103;-66
2022/08/29 08:09:25;;;;;;;8.13;5.70;;;;;;;26.01;71.91;100386.59;5105278;28;20039;-65
2022/08/29 08:11:50;;;;;;;7.88;5.50;;;;;;;26.15;70.85;100385.38;5104620;28;20028;-66
2022/08/29 08:14:16;;;;;;;5.18;4.68;;;;;;;26.22;70.17;100386.91;5105389;28;20072;-66
2022/08/29 08:16:42;;;;;;;6.57;5.68;;;;;;;26.30;69.81;100389.34;5086788;28;20023;-66
2022/08/29 08:19:07;;;;;;;6.95;4.93;;;;;;;26.49;68.21;100388.22;5078911;28;20727;-65
2022/08/29 08:21:33;;;;;;;6.75;4.82;;;;;;;26.56;67.70;100390.84;5104276;28;20040;-64
2022/08/29 08:23:59;;;;;;;6.40;4.75;;;;;;;26.76;65.87;100396.88;5085946;28;20031;-66
2022/08/29 08:26:24;;;;;;;5.57;4.63;;;;;;;27.05;64.66;100398.69;5104221;27;20038;-66
2022/08/29 08:28:51;;;;;;;4.90;4.40;;;;;;;27.07;63.74;100396.56;5101669;27;20030;-65
2022/08/29 08:31:18;;;;;;;9.43;4.53;;;;;;;27.09;64.30;100402.66;5107361;27;20035;-66
2022/08/29 08:33:45;;;;;;;10.60;4.70;;;;;;;27.19;64.36;100397.41;5087443;28;20077;-65
2022/08/29 08:36:21;;;;;;;10.80;4.88;;;;;;;27.24;64.21;100396.72;5105434;28;20034;-66
2022/08/29 08:38:48;;;;;;;5.28;4.70;;;;;;;27.45;63.62;100391.41;5105129;28;20472;-66
2022/08/29 08:41:26;;;;;;;7.50;5.00;;;;;;;27.45;62.53;100393.31;5088447;28;20031;-65
2022/08/29 08:43:55;;;;;;;7.75;4.28;;;;;;;27.56;60.61;100396.03;5104154;27;20080;-65
2022/08/29 08:46:43;;;;;;;5.57;4.22;;;;;;;27.72;59.03;100394.44;5105689;27;20395;-66
2022/08/29 08:49:12;;;;;;;7.63;4.63;;;;;;;27.75;59.27;100392.03;5085314;28;20055;-66
2022/08/29 08:51:44;;;;;;;4.35;3.95;;;;;;;27.79;58.81;100390.47;5110933;27;20031;-67
2022/08/29 08:54:33;;;;;;;6.72;4.30;;;;;;;27.75;59.05;100394.78;5106255;27;20032;-67
2022/08/29 08:57:09;;;;;;;5.75;3.88;;;;;;;27.71;59.70;100390.88;5085542;28;20027;-65
2022/08/29 08:59:41;;;;;;;4.50;4.10;;;;;;;27.86;56.71;100393.13;5104903;28;20050;-65
2022/08/29 09:02:34;;;;;;;5.15;4.25;;;;;;;27.85;57.51;100400.56;5104966;28;20032;-66
2022/08/29 09:05:27;;;;;;;6.30;4.10;;;;;;;27.97;57.65;100398.59;5104546;28;20158;-66
2022/08/29 09:08:20;;;;;;;4.20;3.80;;;;;;;28.07;57.82;100396.03;5102552;28;20031;-66
2022/08/29 09:11:01;;;;;;;10.48;3.85;;;;;;;28.03;58.35;100399.53;5102562;28;20063;-66
2022/08/29 09:13:47;;;;;;;11.18;4.72;;;;;;;28.06;58.99;100390.75;5104868;28;20028;-65
2022/08/29 09:16:23;;;;;;;5.95;4.68;;;;;;;28.13;57.76;100397.81;5104788;28;20020;-66
2022/08/29 09:18:49;;;;;;;4.72;4.03;;;;;;;28.14;57.62;100402.22;5104135;28;20024;-66
2022/08/29 09:21:18;;;;;;;5.00;3.95;;;;;;;28.30;56.28;100406.09;5104794;28;20054;-64
2022/08/29 09:23:45;;;;;;;7.38;4.30;;;;;;;28.30;57.21;100397.84;5104516;28;20467;-66
2022/08/29 09:26:15;;;;;;;8.00;4.20;;;;;;;28.38;56.06;100400.22;5104348;28;20100;-66
2022/08/29 09:28:40;;;;;;;7.20;4.30;;;;;;;28.37;55.80;100393.84;5102028;28;20479;-66
2022/08/29 09:31:31;;;;;;;6.43;4.50;;;;;;;28.42;56.62;100396.69;5103704;28;20088;-66
2022/08/29 09:34:00;;;;;;;5.40;3.72;;;;;;;28.52;56.13;100388.63;5101588;28;20035;-66
2022/08/29 09:36:36;;;;;;;4.25;3.85;;;;;;;28.61;55.91;100390.97;5100865;28;20027;-67
2022/08/29 09:39:20;;;;;;;4.63;3.50;;;;;;;28.73;55.67;100392.59;5085062;28;20437;-66
2022/08/29 09:41:54;;;;;;;4.10;3.70;;;;;;;28.76;55.59;100386.56;5102395;28;20023;-67
2022/08/29 09:44:34;;;;;;;6.18;3.80;;;;;;;28.82;55.51;100381.94;5102221;28;20027;-65
2022/08/29 09:47:19;;;;;;;7.10;3.33;;;;;;;28.94;54.40;100393.72;5085177;28;20039;-66
2022/08/29 09:50:23;;;;;;;5.40;3.85;;;;;;;28.94;53.73;100388.19;5103029;28;20029;-66
2022/08/29 09:52:56;;;;;;;4.82;3.08;;;;;;;29.06;52.16;100397.28;5101495;28;20107;-66
2022/08/29 09:55:22;;;;;;;4.03;3.03;;;;;;;28.98;51.99;100390.22;5101138;28;20051;-66
2022/08/29 09:57:55;;;;;;;6.25;2.97;;;;;;;28.96;51.81;100392.41;5102926;28;20303;-66
2022/08/29 10:00:28;;;;;;;5.13;2.97;;;;;;;28.98;51.95;100392.97;5085385;28;20616;-66
2022/08/29 10:02:57;;;;;;;4.53;2.80;;;;;;;29.05;51.81;100388.13;5103156;28;20032;-67
2022/08/29 10:05:29;;;;;;;3.20;2.80;;;;;;;29.13;51.75;100389.63;5085798;28;20027;-65
2022/08/29 10:07:56;;;;;;;4.30;3.00;;;;;;;29.16;51.65;100392.75;5103164;28;20467;-65
2022/08/29 10:10:33;;;;;;;3.50;3.20;;;;;;;29.27;51.33;100394.56;5087990;28;20172;-66
2022/08/29 10:13:20;;;;;;;4.47;2.90;;;;;;;29.29;51.83;100395.16;5104200;28;20506;-66
2022/08/29 10:15:56;;;;;;;4.38;3.42;;;;;;;29.35;51.69;100390.53;5105866;28;20511;-66
2022/08/29 10:18:41;;;;;;;3.10;2.90;;;;;;;29.37;52.28;100385.59;5104342;28;20035;-65
2022/08/29 10:21:14;;;;;;;3.83;3.42;;;;;;;29.45;52.21;100385.97;5105962;28;20048;-66
2022/08/29 10:24:03;;;;;;;3.93;3.37;;;;;;;29.56;51.54;100379.47;5085625;28;20150;-66
2022/08/29 10:26:40;;;;;;;4.25;2.95;;;;;;;29.75;50.20;100388.31;5101115;28;20762;-67
2022/08/29 10:29:25;;;;;;;3.17;2.65;;;;;;;29.69;49.69;100387.41;5103614;28;20032;-66
2022/08/29 10:32:12;;;;;;;3.22;2.22;;;;;;;29.71;48.68;100384.41;5102707;28;20803;-67
2022/08/29 10:35:00;;;;;;;2.88;2.33;;;;;;;29.69;49.00;100379.13;5101769;28;20055;-66
2022/08/29 10:37:47;;;;;;;4.60;2.47;;;;;;;29.77;49.05;100378.69;5104914;28;20058;-65
2022/08/29 10:40:35;;;;;;;3.42;2.88;;;;;;;29.87;49.20;100389.88;5085225;28;20088;-66
2022/08/29 10:43:19;;;;;;;3.58;3.03;;;;;;;29.89;49.78;100382.13;5100772;28;20565;-65
2022/08/29 10:45:53;;;;;;;;;;;;;;;29.96;48.41;100381.94;5084877;28;20035;-66
2022/08/29 10:48:36;;;;;;;3.38;3.08;;;;;;;29.92;47.64;100378.84;5087617;28;20294;-67
2022/08/29 10:51:16;;;;;;;2.80;2.50;;;;;;;29.94;47.58;100375.81;5106853;28;20035;-66
2022/08/29 10:53:53;;;;;;;3.20;2.70;;;;;;;29.90;48.58;100374.69;5086247;28;20041;-67
2022/08/29 10:56:39;;;;;;;4.63;3.33;;;;;;;29.87;48.71;100361.34;5088918;28;20024;-66
2022/08/29 10:59:17;;;;;;;4.65;2.70;;;;;;;30.10;48.08;100375.75;5107706;28;20027;-67
2022/08/29 11:01:56;;;;;;;3.15;2.67;;;;;;;29.97;48.67;100373.38;5107591;28;20035;-66
2022/08/29 11:04:33;;;;;;;4.72;2.75;;;;;;;29.97;48.33;100359.56;5109209;27;20478;-65
2022/08/29 11:07:15;;;;;;;5.88;2.47;;;;;;;29.99;47.75;100373.94;5108483;27;20039;-66
2022/08/29 11:09:53;;;;;;;3.38;2.65;;;;;;;29.92;48.36;100365.00;5105944;28;20519;-66
2022/08/29 11:12:39;;;;;;;3.22;2.47;;;;;;;29.77;49.33;100358.47;5089437;28;20128;-66
2022/08/29 11:15:29;;;;;;;5.03;2.72;;;;;;;29.73;49.67;100365.63;5089407;28;20712;-66
2022/08/29 11:18:07;;;;;;;3.50;2.83;;;;;;;29.86;49.44;100370.75;5106610;28;20110;-67
2022/08/29 11:20:39;;;;;;;3.63;2.80;;;;;;;29.68;49.44;100362.78;5107996;28;20055;-66
2022/08/29 11:23:15;;;;;;;6.97;2.92;;;;;;;29.60;49.84;100352.16;5107153;28;20093;-66
2022/08/29 11:25:42;;;;;;;2.65;2.45;;;;;;;29.55;49.79;100349.31;5101788;28;20038;-66
2022/08/29 11:28:21;;;;;;;3.22;2.80;;;;;;;29.70;48.93;100355.09;5106530;28;20038;-66
2022/08/29 11:31:02;;;;;;;2.70;2.50;;;;;;;29.65;48.81;100335.66;5106133;28;20035;-66
2022/08/29 11:33:44;;;;;;;2.83;2.40;;;;;;;29.76;48.70;100345.75;5106168;28;20035;-66